EFHK

Helsinki/Vantaa

Airport
ICAO code
EFHK
Summary
ICAO Region
EUR
ICAO Territory
Location

Helsinki, Finland,

Elevation
179 ft
Coordinates
60° 19' 2" N , 24° 57' 48" E
KCC
Dfb
Metar
Observation
EFHK 152220Z 08005KT CAVOK 20/17 Q1017 NOSIG
Station
Helsinki-Vantaa
Date/Time
2022-08-15 22:20:00
Wind direction
80°
Wind speed
05 kts
Lowest cloud amount
clouds and visibility OK
Temperature
20°C
Dew point
17°C
Humidity
82%
QNH
1017 hPa
Weather condition
n/a

Description

International airport serving capital city of Finland.

Climatology

Humid Continental climate (Köppen climate classification Dfb) - Variable weather patterns and a large seasonal temperature variance. Summers are often warm and humid with frequent thunderstorms and winters can be very cold with frequent snowfall and persistent snow cover.

Runways

Designator Length Width Surface Rops
15/33 2901 60 ASP Yes/Yes
04L/22R 3060 60 ASP Yes/Yes
04R/22L 3440 60 ASP Yes/Yes

SKYbrary Partners:

Safety knowledge contributed by: